KDHN

Dothan Regional Airport

Dothan, Alabama, USA
METAR KDHN 170053Z 28004KT 10SM CLR 10/07 A3021 RMK AO2 SLP230 T01000072
Observed Flight Rules
Dec-17 @ 00:53 UTC (15 minutes ago) Visual Flight Rules
Wind Visibility Clouds
280° at 4 knots 10 miles
  • Clear skies
Temperatures Readings
Current 10°C / 50°F
Dewpoint 7°C / 45°F
Humidity 82%
Altimeter 30.21" Hg
Pressure 1023 hPa
Elevation 113
METAR KDHN 170053Z 28004KT 10SM CLR 10/07 A3021 RMK AO2 SLP230 T01000072
Observed Flight Rules
Dec-17 @ 00:53 UTC
(15 minutes ago)
VFR
Wind Visibility
280° at 4 knots 10 miles
Clouds
  • Clear skies
Temperature Dewpoint
10°C / 50°F 7°C / 45°F
Humidity Altimeter Pressure
82% 30.21" Hg 1023 hPa